createdAt,value
2023-02-11T00:02:29.778Z,20.40
2023-02-11T00:05:01.706Z,21.88
2023-02-11T00:07:36.667Z,23.70
2023-02-11T00:10:08.210Z,20.10
2023-02-11T00:12:39.870Z,22.45
2023-02-11T00:15:12.353Z,21.77
2023-02-11T00:17:43.772Z,21.38
2023-02-11T00:20:14.735Z,21.67
2023-02-11T00:22:48.121Z,22.52
2023-02-11T00:25:19.191Z,21.95
2023-02-11T00:27:50.105Z,23.88
2023-02-11T00:30:21.280Z,21.50
2023-02-11T00:32:52.129Z,20.63
2023-02-11T00:35:22.946Z,20.98
2023-02-11T00:37:56.923Z,19.48
2023-02-11T00:40:27.782Z,20.83
2023-02-11T00:42:58.669Z,19.77
2023-02-11T00:45:30.980Z,19.77
2023-02-11T00:48:01.929Z,20.25
2023-02-11T00:50:32.869Z,19.70
2023-02-11T00:53:06.376Z,19.85
2023-02-11T00:55:37.218Z,19.80
2023-02-11T00:58:08.103Z,21.63
2023-02-11T01:00:39.393Z,24.70
2023-02-11T01:03:10.215Z,21.70
2023-02-11T01:05:41.038Z,22.65
2023-02-11T01:08:18.704Z,22.38
2023-02-11T01:10:56.624Z,22.23
2023-02-11T01:13:27.728Z,22.13
2023-02-11T01:15:59.275Z,23.08
2023-02-11T01:18:30.538Z,25.13
2023-02-11T01:21:01.382Z,23.45
2023-02-11T01:23:34.798Z,24.58
2023-02-11T01:26:05.704Z,23.80
2023-02-11T01:28:36.914Z,23.77
2023-02-11T01:31:08.155Z,24.05
2023-02-11T01:33:39.049Z,23.85
2023-02-11T01:36:11.548Z,23.23
2023-02-11T01:38:45.801Z,23.17
2023-02-11T01:41:17.848Z,22.85
2023-02-11T01:43:50.832Z,22.95
2023-02-11T01:46:33.402Z,21.17
2023-02-11T01:49:10.357Z,21.60
2023-02-11T01:54:33.845Z,20.48
2023-02-11T01:57:17.989Z,22.58
2023-02-11T01:59:53.550Z,20.08
2023-02-11T02:02:30.238Z,20.60
2023-02-11T02:07:39.511Z,20.98
2023-02-11T02:12:47.578Z,19.60
2023-02-11T02:15:24.790Z,20.77
2023-02-11T02:18:13.197Z,20.85
2023-02-11T02:21:24.281Z,19.35
2023-02-11T02:24:39.525Z,18.70
2023-02-11T02:27:38.921Z,19.70
2023-02-11T02:30:39.011Z,18.98
2023-02-11T02:33:31.861Z,16.92
2023-02-11T02:36:19.963Z,17.38
2023-02-11T02:38:56.064Z,18.65
2023-02-11T02:41:31.890Z,21.27
2023-02-11T02:44:03.234Z,20.00
2023-02-11T02:46:36.559Z,20.83
2023-02-11T02:49:15.408Z,18.10
2023-02-11T02:52:19.191Z,19.20
2023-02-11T02:55:12.044Z,20.08
2023-02-11T02:57:56.754Z,19.85
2023-02-11T03:00:35.724Z,19.55
2023-02-11T03:03:20.988Z,20.85
2023-02-11T03:05:59.598Z,20.08
2023-02-11T03:08:36.079Z,21.20
2023-02-11T03:11:08.670Z,23.25
2023-02-11T03:13:42.866Z,23.83
2023-02-11T03:16:17.909Z,23.92
2023-02-11T03:18:53.434Z,22.70
2023-02-11T03:21:28.544Z,23.00
2023-02-11T03:24:04.203Z,21.60
2023-02-11T03:26:39.186Z,23.40
2023-02-11T03:29:19.854Z,23.10
2023-02-11T03:32:01.941Z,22.85
2023-02-11T03:34:40.727Z,22.23
2023-02-11T03:37:19.086Z,23.98
2023-02-11T03:39:56.783Z,23.65
2023-02-11T03:42:31.926Z,23.20
2023-02-11T03:45:06.881Z,23.60
2023-02-11T03:47:41.531Z,23.90
2023-02-11T03:50:16.104Z,23.42
2023-02-11T03:52:51.605Z,23.05
2023-02-11T03:55:26.114Z,23.50
2023-02-11T03:57:57.204Z,23.92
2023-02-11T04:00:33.927Z,24.08
2023-02-11T04:03:04.915Z,23.30
2023-02-11T04:05:36.054Z,25.45
2023-02-11T04:08:09.585Z,23.38
2023-02-11T04:10:40.434Z,21.90
2023-02-11T04:13:11.233Z,21.50
2023-02-11T04:15:42.157Z,22.42
2023-02-11T04:18:13.072Z,22.88
2023-02-11T04:20:43.922Z,21.58
2023-02-11T04:23:17.342Z,20.98
2023-02-11T04:25:48.790Z,22.83
2023-02-11T04:28:19.992Z,22.75
2023-02-11T04:30:53.407Z,22.05
2023-02-11T04:33:24.280Z,20.50
2023-02-11T04:35:55.072Z,21.15
2023-02-11T04:38:28.477Z,20.52
2023-02-11T04:41:00.828Z,21.67
2023-02-11T04:43:31.646Z,20.83
2023-02-11T04:46:02.460Z,20.58
2023-02-11T04:48:33.285Z,20.48
2023-02-11T04:51:04.155Z,20.38
2023-02-11T04:53:37.545Z,20.27
2023-02-11T04:56:08.975Z,19.95
2023-02-11T04:58:39.785Z,18.73
2023-02-11T05:01:11.535Z,19.92
2023-02-11T05:03:43.298Z,20.38
2023-02-11T05:06:14.897Z,20.13
2023-02-11T05:08:48.326Z,18.60
2023-02-11T05:11:21.545Z,19.02
2023-02-11T05:13:52.420Z,18.83
2023-02-11T05:16:23.392Z,19.98
2023-02-11T05:18:57.509Z,18.75
2023-02-11T05:21:28.841Z,19.02
2023-02-11T05:24:02.302Z,18.45
2023-02-11T05:26:33.153Z,18.80
2023-02-11T05:29:03.940Z,19.70
2023-02-11T05:31:34.821Z,19.17
2023-02-11T05:34:06.481Z,19.75
2023-02-11T05:36:37.238Z,19.15
2023-02-11T05:39:10.685Z,20.73
2023-02-11T05:41:41.688Z,20.95
2023-02-11T05:44:12.636Z,20.77
2023-02-11T05:46:43.620Z,21.15
2023-02-11T05:49:14.728Z,21.85
2023-02-11T05:51:45.657Z,21.65
2023-02-11T05:54:19.762Z,21.60
2023-02-11T05:56:50.598Z,22.50
2023-02-11T05:59:21.457Z,21.58
2023-02-11T06:01:52.238Z,21.30
2023-02-11T06:04:23.583Z,22.23
2023-02-11T06:06:54.379Z,22.73
2023-02-11T06:09:30.540Z,20.98
2023-02-11T06:12:01.414Z,21.52
2023-02-11T06:14:32.368Z,20.60
2023-02-11T06:17:03.181Z,20.23
2023-02-11T06:19:34.098Z,18.88
2023-02-11T06:22:05.027Z,19.30
2023-02-11T06:24:58.941Z,18.95
2023-02-11T06:27:29.448Z,17.25
2023-02-11T06:30:00.618Z,17.77
2023-02-11T06:32:47.345Z,19.55
2023-02-11T06:35:18.459Z,19.33
2023-02-11T06:37:49.944Z,20.35
2023-02-11T06:40:23.538Z,19.92
2023-02-11T06:42:54.435Z,20.38
2023-02-11T06:45:25.290Z,20.23
2023-02-11T06:47:56.451Z,20.25
2023-02-11T06:50:27.461Z,20.55
2023-02-11T06:52:58.235Z,18.85
2023-02-11T06:55:31.635Z,19.88
2023-02-11T06:58:02.481Z,21.00
2023-02-11T07:00:33.367Z,19.55
2023-02-11T07:03:04.224Z,20.65
2023-02-11T07:05:35.384Z,21.55
2023-02-11T07:08:06.152Z,21.17
2023-02-11T07:10:40.176Z,20.40
2023-02-11T07:13:11.054Z,19.65
2023-02-11T07:15:41.869Z,19.30
2023-02-11T07:18:14.665Z,17.98
2023-02-11T07:20:45.698Z,18.17
2023-02-11T07:23:16.514Z,18.63
2023-02-11T07:25:50.238Z,17.73
2023-02-11T07:28:21.200Z,17.73
2023-02-11T07:30:52.039Z,18.20
2023-02-11T07:33:22.950Z,18.35
2023-02-11T07:35:53.772Z,17.25
2023-02-11T07:38:24.542Z,18.23
2023-02-11T07:40:58.042Z,16.38
2023-02-11T07:43:28.804Z,17.80
2023-02-11T07:45:59.611Z,17.45
2023-02-11T07:48:30.410Z,17.50
2023-02-11T07:51:09.649Z,17.40
2023-02-11T07:53:41.320Z,17.50
2023-02-11T07:56:16.035Z,17.73
2023-02-11T07:58:47.291Z,17.63
2023-02-11T08:01:22.721Z,17.83
2023-02-11T08:03:54.034Z,18.13
2023-02-11T08:06:26.955Z,17.55
2023-02-11T08:08:57.646Z,19.27
2023-02-11T08:11:31.921Z,19.88
2023-02-11T08:14:02.757Z,20.23
2023-02-11T08:16:35.580Z,18.92
2023-02-11T08:19:08.559Z,19.52
2023-02-11T08:21:39.561Z,20.42
2023-02-11T08:24:10.972Z,19.60
2023-02-11T08:26:44.695Z,23.02
2023-02-11T08:29:17.380Z,21.35
2023-02-11T08:31:50.430Z,24.20
2023-02-11T08:34:22.297Z,21.73
2023-02-11T08:36:54.238Z,19.88
2023-02-11T08:39:25.800Z,19.77
2023-02-11T08:41:59.543Z,19.98
2023-02-11T08:44:30.648Z,20.15
2023-02-11T08:47:01.402Z,20.83
2023-02-11T08:49:34.242Z,20.50
2023-02-11T08:52:05.227Z,21.05
2023-02-11T08:54:36.078Z,20.65
2023-02-11T08:57:09.725Z,21.27
2023-02-11T08:59:40.492Z,20.95
2023-02-11T09:02:15.584Z,20.10
2023-02-11T09:04:46.399Z,18.98
2023-02-11T09:07:17.207Z,19.65
2023-02-11T09:09:48.202Z,22.23
2023-02-11T09:12:21.616Z,22.45
2023-02-11T09:14:52.471Z,20.65
2023-02-11T09:17:23.266Z,19.77
2023-02-11T09:19:54.189Z,20.98
2023-02-11T09:22:25.052Z,19.67
2023-02-11T09:24:55.937Z,18.33
2023-02-11T09:27:29.507Z,19.08
2023-02-11T09:30:00.355Z,18.80
2023-02-11T09:32:31.386Z,18.67
2023-02-11T09:35:02.395Z,18.58
2023-02-11T09:37:35.685Z,18.38
2023-02-11T09:40:08.818Z,19.52
2023-02-11T09:42:49.328Z,19.73
2023-02-11T09:45:23.369Z,20.25
2023-02-11T09:47:58.914Z,20.05
2023-02-11T09:50:33.261Z,22.38
2023-02-11T09:53:06.540Z,21.30
2023-02-11T09:55:43.020Z,23.17
2023-02-11T09:58:20.834Z,29.90
2023-02-11T10:01:00.537Z,30.08
2023-02-11T10:03:56.309Z,29.80
2023-02-11T10:06:46.220Z,25.15
2023-02-11T10:09:37.281Z,23.17
2023-02-11T10:12:27.994Z,29.90
2023-02-11T10:15:18.192Z,22.02
2023-02-11T10:18:11.458Z,24.95
2023-02-11T10:20:50.905Z,28.20
2023-02-11T10:23:27.753Z,24.90
2023-02-11T10:26:00.546Z,25.00
2023-02-11T10:28:34.316Z,22.13
2023-02-11T10:31:15.410Z,23.38
2023-02-11T10:33:50.118Z,23.20
2023-02-11T10:36:24.594Z,20.50
2023-02-11T10:38:55.415Z,20.33
2023-02-11T10:41:32.706Z,20.52
2023-02-11T10:44:04.615Z,19.52
2023-02-11T10:46:41.023Z,20.58
2023-02-11T10:49:11.873Z,19.83
2023-02-11T10:51:42.750Z,19.80
2023-02-11T10:54:24.571Z,20.15
2023-02-11T10:57:02.886Z,19.73
2023-02-11T10:59:38.653Z,20.10
2023-02-11T11:02:32.094Z,19.40
2023-02-11T11:05:06.324Z,24.17
2023-02-11T11:07:38.200Z,18.35
2023-02-11T11:10:11.498Z,18.60
2023-02-11T11:12:52.051Z,18.10
2023-02-11T11:15:26.180Z,18.88
2023-02-11T11:18:22.999Z,16.15
2023-02-11T11:21:01.909Z,17.20
2023-02-11T11:23:34.269Z,16.88
2023-02-11T11:26:08.257Z,17.67
2023-02-11T11:28:43.885Z,16.38
2023-02-11T11:31:19.681Z,17.40
2023-02-11T11:33:56.470Z,15.93
2023-02-11T11:36:35.215Z,14.15
2023-02-11T11:39:20.354Z,15.15
2023-02-11T11:41:56.649Z,13.68
2023-02-11T11:44:34.053Z,14.07
2023-02-11T11:47:27.082Z,14.80
2023-02-11T11:50:19.011Z,15.55
2023-02-11T11:52:58.179Z,15.38
2023-02-11T11:55:31.738Z,11.25
2023-02-11T11:58:02.568Z,10.55
2023-02-11T12:00:39.388Z,10.82
2023-02-11T12:03:35.020Z,10.88
2023-02-11T12:06:24.229Z,11.32
2023-02-11T12:09:04.831Z,11.40
2023-02-11T12:11:43.428Z,11.07
2023-02-11T12:14:27.253Z,12.35
2023-02-11T12:17:04.773Z,12.63
2023-02-11T12:19:48.210Z,9.93
2023-02-11T12:22:33.789Z,10.10
2023-02-11T12:25:25.641Z,10.90
2023-02-11T12:28:06.171Z,9.10
2023-02-11T12:31:11.407Z,10.50
2023-02-11T12:34:00.890Z,10.13
2023-02-11T12:36:46.764Z,9.90
2023-02-11T12:39:34.598Z,10.32
2023-02-11T12:42:56.855Z,9.93
2023-02-11T12:45:45.438Z,10.40
2023-02-11T12:48:27.506Z,9.98
2023-02-11T12:51:02.715Z,9.73
2023-02-11T12:53:47.778Z,9.63
2023-02-11T12:56:26.154Z,10.55
2023-02-11T12:59:01.481Z,10.85
2023-02-11T13:01:38.693Z,11.63
2023-02-11T13:04:13.992Z,11.07
2023-02-11T13:06:50.437Z,11.43
2023-02-11T13:09:26.356Z,10.88
2023-02-11T13:12:23.857Z,11.00
2023-02-11T13:14:57.668Z,11.00
2023-02-11T13:17:35.939Z,11.43
2023-02-11T13:20:19.557Z,10.05
2023-02-11T13:22:57.350Z,10.60
2023-02-11T13:25:35.266Z,10.43
2023-02-11T13:28:24.094Z,10.88
2023-02-11T13:31:02.849Z,9.90
2023-02-11T13:33:39.724Z,11.80
2023-02-11T13:36:25.824Z,11.98
2023-02-11T13:39:05.775Z,10.57
2023-02-11T13:41:42.462Z,10.43
2023-02-11T13:44:29.009Z,10.15
2023-02-11T13:47:03.595Z,10.48
2023-02-11T13:49:41.074Z,9.10
2023-02-11T13:52:25.756Z,7.72
2023-02-11T13:54:59.959Z,8.10
2023-02-11T13:57:38.929Z,8.20
2023-02-11T14:00:51.946Z,7.47
2023-02-11T14:03:47.923Z,9.57
2023-02-11T14:06:36.814Z,9.10
2023-02-11T14:09:37.367Z,24.45
2023-02-11T14:12:37.537Z,18.35
2023-02-11T14:15:24.408Z,14.15
2023-02-11T14:17:55.478Z,13.82
2023-02-11T14:20:47.852Z,11.95
2023-02-11T14:23:28.816Z,13.43
2023-02-11T14:26:29.388Z,9.70
2023-02-11T14:29:05.832Z,9.45
2023-02-11T14:31:44.888Z,8.27
2023-02-11T14:34:43.188Z,8.27
2023-02-11T14:37:27.131Z,8.75
2023-02-11T14:40:12.820Z,8.68
2023-02-11T14:42:44.408Z,8.15
2023-02-11T14:45:25.089Z,7.45
2023-02-11T14:48:01.785Z,8.05
2023-02-11T14:50:40.215Z,7.90
2023-02-11T14:53:18.871Z,6.95
2023-02-11T14:55:52.686Z,5.95
2023-02-11T14:58:26.624Z,6.63
2023-02-11T15:01:00.381Z,6.22
2023-02-11T15:03:34.315Z,7.22
2023-02-11T15:06:08.989Z,7.22
2023-02-11T15:08:48.565Z,7.20
2023-02-11T15:11:22.376Z,6.78
2023-02-11T15:13:55.588Z,6.03
2023-02-11T15:16:29.269Z,6.55
2023-02-11T15:19:04.617Z,7.18
2023-02-11T15:21:39.002Z,6.55
2023-02-11T15:24:26.915Z,5.70
2023-02-11T15:27:02.683Z,4.93
2023-02-11T15:29:40.546Z,5.10
2023-02-11T15:32:17.858Z,11.65
2023-02-11T15:34:50.090Z,8.27
2023-02-11T15:37:24.262Z,5.18
2023-02-11T15:39:58.464Z,10.82
2023-02-11T15:42:40.830Z,6.70
2023-02-11T15:45:29.298Z,4.80
2023-02-11T15:48:12.169Z,6.93
2023-02-11T15:50:47.114Z,7.40
2023-02-11T15:53:26.900Z,9.85
2023-02-11T15:56:07.238Z,3.90
2023-02-11T15:58:40.870Z,6.30
2023-02-11T16:01:13.278Z,9.50
2023-02-11T16:03:45.430Z,14.13
2023-02-11T16:06:21.015Z,12.73
2023-02-11T16:09:03.438Z,13.50
2023-02-11T16:11:38.718Z,4.57
2023-02-11T16:14:26.614Z,6.45
2023-02-11T16:17:00.745Z,14.90
2023-02-11T16:19:32.695Z,9.05
2023-02-11T16:22:10.933Z,4.85
2023-02-11T16:24:43.167Z,12.80
2023-02-11T16:27:25.581Z,12.60
2023-02-11T16:29:56.637Z,10.35
2023-02-11T16:32:29.042Z,13.00
2023-02-11T16:35:02.421Z,6.57
2023-02-11T16:37:33.635Z,8.30
2023-02-11T16:40:04.810Z,14.38
2023-02-11T16:42:38.512Z,4.70
2023-02-11T16:45:09.703Z,4.38
2023-02-11T16:47:41.285Z,5.05
2023-02-11T16:50:15.259Z,5.80
2023-02-11T16:52:47.410Z,6.18
2023-02-11T16:55:18.503Z,5.40
2023-02-11T16:57:52.042Z,5.50
2023-02-11T17:00:24.125Z,6.22
2023-02-11T17:02:55.029Z,6.57
2023-02-11T17:05:27.244Z,8.90
2023-02-11T17:07:58.322Z,7.05
2023-02-11T17:10:30.985Z,8.52
2023-02-11T17:13:05.178Z,10.65
2023-02-11T17:15:36.285Z,9.50
2023-02-11T17:18:07.315Z,5.75
2023-02-11T17:20:38.164Z,4.38
2023-02-11T17:23:08.932Z,9.50
2023-02-11T17:25:40.880Z,6.80
2023-02-11T17:28:15.021Z,6.63
2023-02-11T17:30:45.812Z,5.65
2023-02-11T17:33:16.681Z,8.82
2023-02-11T17:35:47.585Z,8.68
2023-02-11T17:38:18.420Z,9.50
2023-02-11T17:40:49.182Z,4.55
2023-02-11T17:43:23.123Z,4.82
2023-02-11T17:45:54.202Z,9.63
2023-02-11T17:48:25.239Z,9.65
2023-02-11T17:50:56.063Z,6.00
2023-02-11T17:53:26.848Z,5.93
2023-02-11T17:55:58.919Z,10.50
2023-02-11T17:58:32.329Z,9.32
2023-02-11T18:01:03.272Z,10.00
2023-02-11T18:03:34.316Z,9.35
2023-02-11T18:06:06.314Z,12.93
2023-02-11T18:08:37.611Z,15.27
2023-02-11T18:11:12.608Z,14.00
2023-02-11T18:13:51.602Z,12.60
2023-02-11T18:16:22.429Z,13.30
2023-02-11T18:18:53.483Z,9.40
2023-02-11T18:21:26.444Z,9.57
2023-02-11T18:23:57.462Z,14.25
2023-02-11T18:26:28.786Z,20.58
2023-02-11T18:29:04.016Z,17.08
2023-02-11T18:31:35.480Z,14.60
2023-02-11T18:34:07.735Z,9.02
2023-02-11T18:36:39.100Z,7.47
2023-02-11T18:39:09.986Z,8.90
2023-02-11T18:41:42.491Z,8.65
2023-02-11T18:44:22.303Z,11.10
2023-02-11T18:46:53.169Z,12.88
2023-02-11T18:49:24.402Z,12.50
2023-02-11T18:51:55.157Z,13.80
2023-02-11T18:54:25.934Z,12.38
2023-02-11T18:56:56.743Z,11.63
2023-02-11T18:59:30.284Z,11.50
2023-02-11T19:02:01.159Z,11.75
2023-02-11T19:04:32.126Z,10.77
2023-02-11T19:07:04.546Z,10.70
2023-02-11T19:09:35.520Z,11.60
2023-02-11T19:12:08.139Z,12.88
2023-02-11T19:14:41.657Z,12.23
2023-02-11T19:17:13.665Z,13.60
2023-02-11T19:19:44.477Z,13.10
2023-02-11T19:22:15.359Z,12.77
2023-02-11T19:24:46.162Z,13.57
2023-02-11T19:27:16.878Z,12.88
2023-02-11T19:29:50.525Z,13.45
2023-02-11T19:32:21.466Z,13.63
2023-02-11T19:34:53.382Z,11.65
2023-02-11T19:37:24.194Z,10.52
2023-02-11T19:39:54.972Z,12.73
2023-02-11T19:42:27.587Z,11.15
2023-02-11T19:45:01.554Z,7.80
2023-02-11T19:47:32.507Z,8.68
2023-02-11T19:50:03.542Z,14.90
2023-02-11T19:52:34.846Z,17.50
2023-02-11T19:55:05.710Z,14.80
2023-02-11T19:57:36.660Z,15.30
2023-02-11T20:00:11.629Z,19.35
2023-02-11T20:02:45.289Z,11.73
2023-02-11T20:05:16.122Z,9.82
2023-02-11T20:07:46.972Z,8.90
2023-02-11T20:10:17.726Z,8.15
2023-02-11T20:12:48.697Z,8.07
2023-02-11T20:15:22.441Z,6.88
2023-02-11T20:17:54.262Z,8.73
2023-02-11T20:20:26.525Z,8.13
2023-02-11T20:22:58.856Z,8.80
2023-02-11T20:25:29.824Z,7.80
2023-02-11T20:28:00.732Z,8.82
2023-02-11T20:30:34.220Z,8.20
2023-02-11T20:33:05.075Z,8.32
2023-02-11T20:35:36.004Z,8.68
2023-02-11T20:38:06.806Z,8.77
2023-02-11T20:40:38.642Z,7.95
2023-02-11T20:43:09.580Z,8.15
2023-02-11T20:45:43.192Z,8.38
2023-02-11T20:48:14.009Z,7.82
2023-02-11T20:50:47.952Z,8.20
2023-02-11T20:53:19.096Z,7.93
2023-02-11T20:55:50.217Z,7.70
2023-02-11T20:58:21.192Z,7.38
2023-02-11T21:00:54.646Z,8.40
2023-02-11T21:03:25.564Z,7.97
2023-02-11T21:06:00.992Z,7.70
2023-02-11T21:08:32.054Z,7.70
2023-02-11T21:11:02.979Z,7.68
2023-02-11T21:13:34.549Z,8.18
2023-02-11T21:16:08.827Z,9.18
2023-02-11T21:18:39.863Z,8.63
2023-02-11T21:21:11.285Z,7.72
2023-02-11T21:23:42.505Z,8.02
2023-02-11T21:26:13.921Z,7.60
2023-02-11T21:28:45.043Z,7.47
2023-02-11T21:31:24.303Z,7.80
2023-02-11T21:33:56.352Z,8.00
2023-02-11T21:36:27.565Z,7.07
2023-02-11T21:38:58.888Z,7.22
2023-02-11T21:41:29.916Z,7.25
2023-02-11T21:44:01.150Z,7.03
2023-02-11T21:46:34.986Z,7.20
2023-02-11T21:49:05.749Z,7.30
2023-02-11T21:51:36.558Z,6.85
2023-02-11T21:54:07.690Z,6.97
2023-02-11T21:56:38.467Z,6.43
2023-02-11T21:59:09.266Z,6.90
2023-02-11T22:01:42.784Z,6.80
2023-02-11T22:04:14.213Z,6.68
2023-02-11T22:06:45.052Z,6.60
2023-02-11T22:09:15.971Z,7.00
2023-02-11T22:11:46.892Z,6.68
2023-02-11T22:14:17.689Z,6.50
2023-02-11T22:16:51.646Z,7.15
2023-02-11T22:19:23.913Z,6.88
2023-02-11T22:21:55.161Z,6.88
2023-02-11T22:24:26.158Z,6.65
2023-02-11T22:26:56.955Z,7.20
2023-02-11T22:29:27.753Z,7.03
2023-02-11T22:32:01.612Z,7.45
2023-02-11T22:34:32.797Z,6.78
2023-02-11T22:37:04.043Z,7.47
2023-02-11T22:39:35.032Z,7.25
2023-02-11T22:42:05.913Z,7.28
2023-02-11T22:44:36.778Z,7.00
2023-02-11T22:47:10.225Z,7.25
2023-02-11T22:49:41.626Z,7.82
2023-02-11T22:52:12.405Z,6.80
2023-02-11T22:54:43.215Z,6.85
2023-02-11T22:57:14.182Z,7.30
2023-02-11T22:59:45.036Z,6.53
2023-02-11T23:02:18.577Z,7.25
2023-02-11T23:04:50.087Z,7.30
2023-02-11T23:07:20.859Z,6.75
2023-02-11T23:09:51.616Z,7.07
2023-02-11T23:12:22.455Z,6.72
2023-02-11T23:14:54.655Z,7.20
2023-02-11T23:17:29.160Z,7.30
2023-02-11T23:19:59.982Z,7.22
2023-02-11T23:22:30.840Z,7.43
2023-02-11T23:25:01.869Z,7.75
2023-02-11T23:27:32.780Z,7.20
2023-02-11T23:30:04.082Z,7.15
2023-02-11T23:32:37.680Z,7.50
2023-02-11T23:35:09.138Z,7.22
2023-02-11T23:37:40.103Z,6.80
2023-02-11T23:40:12.462Z,7.45
2023-02-11T23:42:43.281Z,7.55
2023-02-11T23:45:14.314Z,7.10
2023-02-11T23:47:47.892Z,6.97
2023-02-11T23:50:19.321Z,7.38
2023-02-11T23:52:50.450Z,7.65
2023-02-11T23:55:21.369Z,6.85
2023-02-11T23:57:52.159Z,7.78
